createdAt,value
2023-01-19T00:02:37.604Z,64.67
2023-01-19T00:05:24.558Z,65.24
2023-01-19T00:08:17.623Z,65.03
2023-01-19T00:11:13.279Z,64.87
2023-01-19T00:13:58.993Z,64.58
2023-01-19T00:16:44.664Z,64.70
2023-01-19T00:19:30.428Z,64.46
2023-01-19T00:22:16.439Z,64.62
2023-01-19T00:25:02.188Z,64.42
2023-01-19T00:27:49.490Z,64.54
2023-01-19T00:30:35.228Z,64.35
2023-01-19T00:33:20.754Z,64.70
2023-01-19T00:36:06.663Z,64.31
2023-01-19T00:38:52.514Z,64.33
2023-01-19T00:42:00.990Z,64.13
2023-01-19T00:45:20.589Z,64.18
2023-01-19T00:48:07.538Z,64.39
2023-01-19T00:50:54.713Z,64.02
2023-01-19T00:53:44.401Z,64.33
2023-01-19T00:56:33.253Z,64.32
2023-01-19T00:59:21.181Z,64.10
2023-01-19T01:02:07.363Z,64.26
2023-01-19T01:04:55.020Z,63.98
2023-01-19T01:07:41.856Z,64.08
2023-01-19T01:10:29.283Z,64.38
2023-01-19T01:13:22.322Z,64.50
2023-01-19T01:16:16.413Z,64.17
2023-01-19T01:19:02.130Z,64.24
2023-01-19T01:21:47.769Z,64.29
2023-01-19T01:24:33.564Z,63.87
2023-01-19T01:27:19.294Z,64.05
2023-01-19T01:30:06.029Z,64.04
2023-01-19T01:32:51.882Z,64.22
2023-01-19T01:35:37.912Z,63.83
2023-01-19T01:38:23.844Z,64.19
2023-01-19T01:41:09.709Z,64.15
2023-01-19T01:44:01.836Z,63.68
2023-01-19T01:46:53.566Z,63.49
2023-01-19T01:49:39.221Z,63.88
2023-01-19T01:53:06.527Z,63.20
2023-01-19T01:55:53.631Z,63.37
2023-01-19T01:58:39.946Z,63.22
2023-01-19T02:01:45.415Z,63.20
2023-01-19T02:04:31.951Z,62.94
2023-01-19T02:07:54.424Z,62.87
2023-01-19T02:11:02.649Z,62.86
2023-01-19T02:13:51.016Z,62.64
2023-01-19T02:16:37.164Z,62.34
2023-01-19T02:19:31.282Z,62.26
2023-01-19T02:22:36.125Z,61.52
2023-01-19T02:25:23.257Z,61.99
2023-01-19T02:28:08.895Z,62.30
2023-01-19T02:30:55.243Z,62.50
2023-01-19T02:33:41.782Z,62.33
2023-01-19T02:36:50.968Z,61.73
2023-01-19T02:40:14.469Z,61.72
2023-01-19T02:43:06.660Z,61.90
2023-01-19T02:45:52.858Z,62.03
2023-01-19T02:48:38.902Z,62.00
2023-01-19T02:51:25.038Z,62.07
2023-01-19T02:54:26.439Z,61.52
2023-01-19T02:57:48.684Z,61.42
2023-01-19T03:00:42.423Z,61.93
2023-01-19T03:03:41.961Z,61.74
2023-01-19T03:06:32.680Z,61.62
2023-01-19T03:09:49.725Z,61.09
2023-01-19T03:12:47.593Z,61.98
2023-01-19T03:15:45.358Z,62.00
2023-01-19T03:18:32.656Z,62.07
2023-01-19T03:21:19.976Z,61.54
2023-01-19T03:24:07.527Z,61.71
2023-01-19T03:26:58.848Z,61.86
2023-01-19T03:29:50.914Z,61.52
2023-01-19T03:32:43.396Z,61.91
2023-01-19T03:35:32.145Z,61.67
2023-01-19T03:38:22.585Z,61.57
2023-01-19T03:41:11.812Z,61.47
2023-01-19T03:43:59.318Z,61.48
2023-01-19T03:46:46.542Z,61.26
2023-01-19T03:49:33.241Z,61.30
2023-01-19T03:52:26.133Z,61.47
2023-01-19T03:55:12.617Z,61.09
2023-01-19T03:57:58.264Z,61.39
2023-01-19T04:00:44.097Z,61.36
2023-01-19T04:03:29.959Z,61.11
2023-01-19T04:06:15.669Z,61.33
2023-01-19T04:09:01.519Z,61.13
2023-01-19T04:11:47.327Z,61.09
2023-01-19T04:14:33.385Z,61.37
2023-01-19T04:17:19.424Z,61.40
2023-01-19T04:20:06.087Z,61.30
2023-01-19T04:22:51.841Z,61.14
2023-01-19T04:25:38.945Z,61.27
2023-01-19T04:28:26.917Z,61.28
2023-01-19T04:31:12.736Z,61.15
2023-01-19T04:33:58.409Z,61.38
2023-01-19T04:36:45.392Z,61.51
2023-01-19T04:39:31.250Z,61.44
2023-01-19T04:42:17.108Z,61.39
2023-01-19T04:45:03.037Z,61.35
2023-01-19T04:47:50.468Z,61.68
2023-01-19T04:50:36.421Z,61.60
2023-01-19T04:53:22.110Z,61.64
2023-01-19T04:56:07.726Z,61.74
2023-01-19T04:58:53.397Z,62.15
2023-01-19T05:01:39.048Z,62.18
2023-01-19T05:04:25.708Z,62.35
2023-01-19T05:07:11.371Z,62.31
2023-01-19T05:09:57.282Z,62.15
2023-01-19T05:12:43.065Z,62.25
2023-01-19T05:15:29.691Z,62.16
2023-01-19T05:18:15.390Z,62.41
2023-01-19T05:21:02.316Z,62.98
2023-01-19T05:23:48.427Z,62.80
2023-01-19T05:26:33.979Z,62.74
2023-01-19T05:29:19.731Z,63.15
2023-01-19T05:32:05.980Z,63.04
2023-01-19T05:34:51.607Z,62.67
2023-01-19T05:37:37.303Z,62.93
2023-01-19T05:40:22.930Z,63.18
2023-01-19T05:43:08.718Z,63.21
2023-01-19T05:45:54.536Z,62.92
2023-01-19T05:48:40.369Z,63.40
2023-01-19T05:51:26.219Z,62.76
2023-01-19T05:54:15.261Z,62.98
2023-01-19T05:57:01.635Z,63.11
2023-01-19T05:59:47.525Z,63.15
2023-01-19T06:02:33.346Z,63.18
2023-01-19T06:05:19.381Z,63.01
2023-01-19T06:08:05.361Z,63.44
2023-01-19T06:10:51.222Z,63.55
2023-01-19T06:14:09.816Z,63.66
2023-01-19T06:16:55.558Z,63.60
2023-01-19T06:19:42.499Z,63.80
2023-01-19T06:22:31.403Z,63.45
2023-01-19T06:25:18.405Z,63.54
2023-01-19T06:28:08.262Z,63.44
2023-01-19T06:30:55.510Z,63.87
2023-01-19T06:33:41.588Z,63.58
2023-01-19T06:36:29.451Z,63.54
2023-01-19T06:39:15.193Z,63.79
2023-01-19T06:42:01.002Z,63.73
2023-01-19T06:44:48.121Z,63.55
2023-01-19T06:47:34.527Z,63.95
2023-01-19T06:50:20.463Z,63.74
2023-01-19T06:53:06.201Z,64.01
2023-01-19T06:55:51.792Z,64.27
2023-01-19T06:58:37.713Z,64.17
2023-01-19T07:01:23.382Z,64.16
2023-01-19T07:04:10.734Z,64.49
2023-01-19T07:06:57.268Z,64.46
2023-01-19T07:09:43.048Z,64.58
2023-01-19T07:12:30.806Z,65.51
2023-01-19T07:15:17.858Z,65.51
2023-01-19T07:18:07.849Z,66.14
2023-01-19T07:20:53.646Z,66.00
2023-01-19T07:28:35.161Z,67.22
2023-01-19T07:31:21.091Z,67.43
2023-01-19T07:34:07.150Z,67.93
2023-01-19T07:36:53.241Z,67.48
2023-01-19T07:39:38.972Z,67.54
2023-01-19T07:43:30.127Z,67.17
2023-01-19T07:51:31.526Z,68.24
2023-01-19T07:54:45.684Z,68.19
2023-01-19T07:57:31.631Z,68.96
2023-01-19T08:00:24.597Z,68.20
2023-01-19T08:03:10.603Z,67.90
2023-01-19T08:14:49.615Z,68.73
2023-01-19T08:17:35.899Z,67.96
2023-01-19T08:20:26.069Z,68.54
2023-01-19T08:41:37.257Z,69.38
2023-01-19T08:44:23.081Z,69.20
2023-01-19T09:42:44.119Z,70.91
2023-01-19T09:45:32.934Z,70.22
2023-01-19T09:48:47.936Z,70.19
2023-01-19T09:51:38.453Z,70.60
2023-01-19T09:54:26.500Z,70.14
2023-01-19T09:57:12.402Z,70.07
2023-01-19T09:59:59.780Z,70.17
2023-01-19T10:02:48.388Z,70.08
2023-01-19T10:05:44.764Z,70.10
2023-01-19T10:08:46.818Z,69.99
2023-01-19T10:11:51.977Z,70.32
2023-01-19T10:14:56.841Z,69.84
2023-01-19T10:17:46.114Z,70.58
2023-01-19T10:20:40.344Z,70.16
2023-01-19T10:23:42.566Z,70.22
2023-01-19T10:26:38.836Z,70.65
2023-01-19T10:29:38.571Z,70.22
2023-01-19T10:32:30.829Z,70.35
2023-01-19T10:35:24.377Z,70.45
2023-01-19T10:38:13.710Z,70.59
2023-01-19T10:41:06.251Z,70.81
2023-01-19T10:44:03.394Z,71.20
2023-01-19T10:46:49.543Z,71.04
2023-01-19T10:49:42.644Z,70.28
2023-01-19T10:52:34.033Z,70.91
2023-01-19T10:55:43.135Z,70.78
2023-01-19T10:58:31.441Z,70.41
2023-01-19T11:01:24.037Z,70.45
2023-01-19T11:04:27.038Z,70.68
2023-01-19T11:07:20.200Z,70.93
2023-01-19T11:10:29.521Z,70.97
2023-01-19T11:13:16.450Z,71.06
2023-01-19T11:16:05.295Z,71.33
2023-01-19T11:18:53.011Z,71.37
2023-01-19T11:21:38.857Z,70.85
2023-01-19T11:24:24.525Z,71.72
2023-01-19T11:27:10.314Z,71.71
2023-01-19T11:30:29.746Z,71.53
2023-01-19T11:33:50.816Z,71.15
2023-01-19T11:36:37.782Z,71.67
2023-01-19T11:39:25.713Z,71.91
2023-01-19T11:42:15.502Z,71.93
2023-01-19T11:45:04.721Z,72.35
2023-01-19T11:47:52.575Z,72.00
2023-01-19T11:50:45.086Z,71.79
2023-01-19T11:53:34.591Z,71.13
2023-01-19T11:56:29.010Z,71.72
2023-01-19T11:59:30.466Z,71.59
2023-01-19T12:02:19.614Z,71.62
2023-01-19T12:05:07.757Z,71.81
2023-01-19T12:07:54.696Z,71.53
2023-01-19T12:10:44.675Z,71.44
2023-01-19T12:13:31.923Z,71.83
2023-01-19T12:16:19.101Z,71.95
2023-01-19T12:19:11.227Z,71.76
2023-01-19T12:21:58.121Z,72.23
2023-01-19T12:25:12.860Z,71.91
2023-01-19T12:28:02.520Z,72.00
2023-01-19T12:30:49.869Z,71.86
2023-01-19T12:33:46.465Z,71.65
2023-01-19T12:36:38.344Z,71.10
2023-01-19T12:39:25.286Z,71.91
2023-01-19T12:42:17.212Z,71.67
2023-01-19T12:45:09.204Z,71.87
2023-01-19T12:47:55.819Z,72.42
2023-01-19T12:50:46.106Z,72.11
2023-01-19T12:53:35.009Z,72.03
2023-01-19T12:56:31.253Z,72.05
2023-01-19T12:59:28.226Z,71.81
2023-01-19T13:02:23.099Z,72.19
2023-01-19T13:05:33.283Z,71.90
2023-01-19T13:08:24.474Z,71.52
2023-01-19T13:11:17.058Z,71.64
2023-01-19T13:14:03.093Z,71.64
2023-01-19T13:17:07.292Z,71.84
2023-01-19T13:20:16.088Z,71.27
2023-01-19T13:23:29.430Z,71.46
2023-01-19T13:26:16.947Z,71.41
2023-01-19T13:29:25.928Z,71.82
2023-01-19T13:32:18.871Z,71.22
2023-01-19T13:35:04.767Z,71.67
2023-01-19T13:38:12.115Z,71.36
2023-01-19T13:41:06.102Z,70.88
2023-01-19T13:44:13.581Z,70.81
2023-01-19T13:47:00.171Z,71.42
2023-01-19T13:49:56.708Z,71.27
2023-01-19T13:52:43.847Z,71.50
2023-01-19T13:55:32.030Z,71.87
2023-01-19T13:58:22.487Z,71.50
2023-01-19T14:01:22.183Z,72.00
2023-01-19T14:04:32.632Z,71.50
2023-01-19T14:10:54.000Z,71.21
2023-01-19T14:13:44.926Z,71.06
2023-01-19T14:16:30.948Z,71.36
2023-01-19T14:19:18.791Z,71.21
2023-01-19T14:22:05.098Z,71.55
2023-01-19T14:24:50.764Z,71.20
2023-01-19T14:27:37.756Z,71.41
2023-01-19T14:30:26.078Z,71.78
2023-01-19T14:33:34.472Z,71.47
2023-01-19T14:36:36.328Z,71.79
2023-01-19T14:39:25.441Z,71.72
2023-01-19T14:42:25.936Z,71.28
2023-01-19T14:45:27.366Z,71.50
2023-01-19T14:48:18.066Z,71.25
2023-01-19T14:51:04.965Z,71.92
2023-01-19T14:53:53.981Z,71.62
2023-01-19T14:56:44.164Z,71.09
2023-01-19T14:59:30.436Z,71.62
2023-01-19T15:02:48.670Z,72.11
2023-01-19T15:06:15.865Z,71.41
2023-01-19T15:09:01.997Z,72.00
2023-01-19T15:12:57.373Z,71.43
2023-01-19T15:15:43.388Z,71.58
2023-01-19T15:18:28.990Z,72.04
2023-01-19T15:21:33.211Z,71.59
2023-01-19T15:24:19.352Z,71.90
2023-01-19T15:27:06.263Z,71.89
2023-01-19T15:29:52.256Z,71.83
2023-01-19T15:32:43.721Z,72.13
2023-01-19T15:36:05.613Z,71.93
2023-01-19T15:38:51.473Z,72.20
2023-01-19T15:41:39.565Z,72.22
2023-01-19T15:44:25.406Z,72.14
2023-01-19T15:47:11.649Z,71.89
2023-01-19T15:54:34.340Z,71.94
2023-01-19T15:57:20.221Z,71.69
2023-01-19T16:00:07.031Z,72.06
2023-01-19T16:02:56.009Z,72.20
2023-01-19T16:05:43.361Z,71.69
2023-01-19T16:08:30.597Z,72.18
2023-01-19T16:11:18.547Z,71.88
2023-01-19T16:14:04.412Z,72.16
2023-01-19T16:16:50.477Z,72.31
2023-01-19T16:19:36.496Z,72.02
2023-01-19T16:22:22.391Z,72.07
2023-01-19T16:25:09.651Z,72.61
2023-01-19T16:27:56.981Z,72.52
2023-01-19T16:30:43.281Z,72.54
2023-01-19T16:33:29.651Z,72.28
2023-01-19T16:36:27.390Z,72.05
2023-01-19T16:39:14.453Z,72.12
2023-01-19T16:42:00.475Z,71.97
2023-01-19T16:44:46.446Z,72.26
2023-01-19T16:47:32.677Z,72.20
2023-01-19T16:50:19.395Z,72.01
2023-01-19T16:53:05.136Z,71.81
2023-01-19T16:55:53.054Z,72.03
2023-01-19T16:58:39.924Z,72.19
2023-01-19T17:01:28.117Z,71.65
2023-01-19T17:04:14.552Z,72.29
2023-01-19T17:07:00.489Z,71.96
2023-01-19T17:09:46.228Z,71.85
2023-01-19T17:12:32.444Z,71.84
2023-01-19T17:15:18.513Z,72.50
2023-01-19T17:18:04.470Z,72.22
2023-01-19T17:20:50.352Z,72.56
2023-01-19T17:23:37.832Z,72.70
2023-01-19T17:26:28.695Z,72.11
2023-01-19T17:29:15.221Z,72.09
2023-01-19T17:32:01.354Z,72.75
2023-01-19T17:34:49.318Z,72.48
2023-01-19T17:37:35.490Z,72.49
2023-01-19T17:40:21.376Z,72.11
2023-01-19T17:43:07.763Z,71.98
2023-01-19T17:45:53.761Z,72.56
2023-01-19T17:48:40.132Z,72.67
2023-01-19T17:51:26.368Z,72.48
2023-01-19T17:54:12.570Z,72.47
2023-01-19T17:56:58.254Z,72.29
2023-01-19T17:59:44.140Z,72.61
2023-01-19T18:02:30.086Z,72.43
2023-01-19T18:05:16.022Z,72.04
2023-01-19T18:08:02.975Z,71.89
2023-01-19T18:10:59.662Z,72.16
2023-01-19T18:13:48.497Z,72.00
2023-01-19T18:16:35.932Z,71.61
2023-01-19T18:19:22.561Z,72.03
2023-01-19T18:22:08.556Z,71.62
2023-01-19T18:24:54.408Z,71.88
2023-01-19T18:27:40.188Z,71.25
2023-01-19T18:30:31.320Z,71.75
2023-01-19T18:33:16.959Z,72.09
2023-01-19T18:36:08.459Z,71.83
2023-01-19T18:38:54.442Z,72.46
2023-01-19T18:41:43.027Z,72.58
2023-01-19T18:44:34.058Z,72.26
2023-01-19T18:47:19.835Z,72.44
2023-01-19T18:50:29.920Z,72.48
2023-01-19T18:53:15.555Z,72.13
2023-01-19T18:56:27.060Z,72.17
2023-01-19T18:59:13.290Z,72.00
2023-01-19T19:02:05.994Z,72.23
2023-01-19T19:04:52.223Z,72.20
2023-01-19T19:07:38.280Z,72.23
2023-01-19T19:10:28.374Z,72.45
2023-01-19T19:13:16.057Z,72.58
2023-01-19T19:16:05.087Z,71.90
2023-01-19T19:18:50.883Z,72.54
2023-01-19T19:22:11.041Z,72.51
2023-01-19T19:24:56.949Z,72.15
2023-01-19T19:27:52.635Z,72.22
2023-01-19T19:30:39.123Z,72.32
2023-01-19T19:33:25.362Z,72.46
2023-01-19T19:36:16.947Z,72.18
2023-01-19T19:39:02.737Z,72.00
2023-01-19T19:41:48.889Z,71.90
2023-01-19T19:44:40.331Z,72.47
2023-01-19T19:47:29.157Z,72.58
2023-01-19T19:50:15.333Z,72.13
2023-01-19T19:53:08.652Z,72.17
2023-01-19T19:55:59.054Z,72.24
2023-01-19T19:58:44.778Z,71.97
2023-01-19T20:01:45.064Z,72.05
2023-01-19T20:04:30.985Z,72.15
2023-01-19T20:07:17.929Z,72.13
2023-01-19T20:10:08.488Z,71.90
2023-01-19T20:12:54.541Z,72.30
2023-01-19T20:15:40.568Z,72.04
2023-01-19T20:18:26.498Z,72.20
2023-01-19T20:21:14.199Z,71.99
2023-01-19T20:24:09.096Z,71.50
2023-01-19T20:26:58.283Z,71.61
2023-01-19T20:29:58.314Z,72.08
2023-01-19T20:32:44.189Z,72.06
2023-01-19T20:35:41.463Z,72.07
2023-01-19T20:38:27.028Z,72.02
2023-01-19T20:41:14.404Z,71.87
2023-01-19T20:44:00.243Z,72.06
2023-01-19T20:46:53.603Z,71.90
2023-01-19T20:49:39.726Z,71.84
2023-01-19T20:52:25.768Z,71.80
2023-01-19T20:55:14.155Z,71.34
2023-01-19T20:57:59.802Z,71.88
2023-01-19T21:00:45.583Z,71.73
2023-01-19T21:03:34.875Z,71.29
2023-01-19T21:06:21.589Z,71.97
2023-01-19T21:09:09.082Z,71.92
2023-01-19T21:11:57.571Z,71.90
2023-01-19T21:14:48.755Z,71.33
2023-01-19T21:17:34.888Z,71.20
2023-01-19T21:20:22.279Z,71.62
2023-01-19T21:23:08.367Z,72.05
2023-01-19T21:25:59.867Z,71.51
2023-01-19T21:28:45.724Z,71.58
2023-01-19T21:31:33.205Z,71.34
2023-01-19T21:34:19.352Z,71.46
2023-01-19T21:37:11.624Z,71.69
2023-01-19T21:39:57.907Z,71.54
2023-01-19T21:42:43.623Z,71.73
2023-01-19T21:45:30.517Z,71.37
2023-01-19T21:48:16.786Z,71.81
2023-01-19T21:51:02.783Z,71.73
2023-01-19T21:53:52.316Z,71.55
2023-01-19T21:56:38.212Z,71.64
2023-01-19T21:59:23.990Z,71.36
2023-01-19T22:02:14.549Z,71.59
2023-01-19T22:05:02.945Z,71.96
2023-01-19T22:08:12.688Z,71.67
2023-01-19T22:11:16.978Z,71.88
2023-01-19T22:14:02.888Z,71.40
2023-01-19T22:16:55.827Z,71.36
2023-01-19T22:19:41.831Z,71.52
2023-01-19T22:22:28.851Z,71.44
2023-01-19T22:25:15.177Z,71.61
2023-01-19T22:28:08.446Z,71.57
2023-01-19T22:30:54.350Z,71.97
2023-01-19T22:33:40.462Z,71.15
2023-01-19T22:36:34.113Z,71.46
2023-01-19T22:39:20.055Z,71.51
2023-01-19T22:42:08.338Z,71.41
2023-01-19T22:44:54.318Z,71.30
2023-01-19T22:47:40.653Z,71.37
2023-01-19T22:50:30.498Z,71.08
2023-01-19T22:53:16.181Z,71.31
2023-01-19T22:56:17.052Z,71.27
2023-01-19T22:59:03.947Z,70.99
2023-01-19T23:02:00.465Z,71.24
2023-01-19T23:04:46.246Z,71.86
2023-01-19T23:07:39.811Z,71.31
2023-01-19T23:10:25.739Z,71.15
2023-01-19T23:13:12.974Z,71.45
2023-01-19T23:15:59.047Z,71.72
2023-01-19T23:18:52.851Z,70.92
2023-01-19T23:21:38.519Z,70.95
2023-01-19T23:24:39.680Z,70.90
2023-01-19T23:27:25.719Z,71.03
2023-01-19T23:30:13.160Z,71.46
2023-01-19T23:32:58.688Z,70.63
2023-01-19T23:35:47.545Z,70.98
2023-01-19T23:38:35.232Z,71.63
2023-01-19T23:41:21.807Z,71.10
2023-01-19T23:44:11.557Z,71.00
2023-01-19T23:46:58.045Z,70.52
2023-01-19T23:49:43.980Z,70.97
2023-01-19T23:52:33.889Z,71.18
2023-01-19T23:55:19.521Z,71.19
2023-01-19T23:58:07.123Z,71.11
